Airdrie, Canada
Current Conditions -  °F | °C
As of 5:00 PM on Wednesday 28 Jan 2015 (Local Time) from CYYC Reporting Station
Scattered Clouds Scattered Clouds  
Wind Chill: 29°   Ceiling: Unl
Heat Index: 36°   Visibility: 40mi
Dew Point: 25°   Wind: 9mph
Humidity: 65%   Direction: 110°ESE
Pressure: 30.28"   Gusts: NA
Location:  51.29°N, 114.01°W
Report Text: CYYC 290000Z 11008KT 40SM FEW100 SCT200 02/M04 A3028 RMK AC1CI2 SLP300
Loading
Personal Weather Stations






























Interactive Weather Map New forecast layout! Learn more

10-Day Weather Forecast

Advertisements
Track Severe Weather on mobile